LEXJ/SDR METAR and TAF weather

Enter ICAO airport designator
Station Type Date Time Source
LEXJ METAR 2019/04/25 08:00 UTC NOAA

LEXJ 250800Z 20018G28KT 150V240 CAVOK 14/03 Q1003


Station Type Date Time Source
LEXJ Decoded METAR 2019/04/25 08:00 UTC NOAA

Santander / Parayas, Spain (LEXJ) 43-26N 003-49W 9M
Apr 25, 2019 - 04:00 AM EDT / 2019.04.25 0800 UTC
Wind: from the SSW (200 degrees) at 21 MPH (18 KT) gusting to 32 MPH (28 KT) (direction variable):0
Visibility: greater than 7 mile(s):0
Temperature: 57 F (14 C)
Dew Point: 37 F (3 C)
Relative Humidity: 47%
Pressure (altimeter): 29.62 in. Hg (1003 hPa)
ob: LEXJ 250800Z 20018G28KT 150V240 CAVOK 14/03 Q1003
cycle: 8

Station Type Date Time Source
LEXJ TAF 2019/04/25 03:27 UTC NOAA

TAF LEXJ 250200Z 2503/2603 22009KT 9999 SCT050 TX19/2515Z TN08/2506Z
TEMPO 2503/2518 22015G30KT PROB40
TEMPO 2518/2524 26015G30KT SHRA TS SCT025TCU SCT030CB

Example: see airport list